createdAt,value
2023-07-25T00:01:47.664Z,99.90
2023-07-25T00:04:15.184Z,99.90
2023-07-25T00:06:42.821Z,99.90
2023-07-25T00:09:10.341Z,99.90
2023-07-25T00:11:37.995Z,99.90
2023-07-25T00:14:05.470Z,99.90
2023-07-25T00:16:32.962Z,99.90
2023-07-25T00:19:00.386Z,99.90
2023-07-25T00:21:27.952Z,99.90
2023-07-25T00:23:55.490Z,99.90
2023-07-25T00:26:22.944Z,99.90
2023-07-25T00:28:50.349Z,99.90
2023-07-25T00:31:17.897Z,99.90
2023-07-25T00:33:45.777Z,99.90
2023-07-25T00:36:13.519Z,99.90
2023-07-25T00:38:41.122Z,99.90
2023-07-25T00:41:08.873Z,99.90
2023-07-25T00:43:36.291Z,99.90
2023-07-25T00:46:03.738Z,99.90
2023-07-25T00:48:32.447Z,99.90
2023-07-25T00:50:59.905Z,99.90
2023-07-25T00:53:27.679Z,99.90
2023-07-25T00:55:55.223Z,99.90
2023-07-25T00:58:22.886Z,99.90
2023-07-25T01:00:50.513Z,99.90
2023-07-25T01:03:18.144Z,99.90
2023-07-25T01:05:48.151Z,99.90
2023-07-25T01:08:15.789Z,99.90
2023-07-25T01:10:43.432Z,99.90
2023-07-25T01:13:10.914Z,99.90
2023-07-25T01:15:39.011Z,99.90
2023-07-25T01:18:08.068Z,99.90
2023-07-25T01:20:36.738Z,99.90
2023-07-25T01:23:04.009Z,99.90
2023-07-25T01:28:26.675Z,99.90
2023-07-25T01:30:54.777Z,99.90
2023-07-25T01:33:22.472Z,99.90
2023-07-25T01:35:50.710Z,99.90
2023-07-25T01:38:18.371Z,99.90
2023-07-25T01:40:46.189Z,99.90
2023-07-25T01:43:13.969Z,99.90
2023-07-25T01:45:41.531Z,99.90
2023-07-25T01:48:09.485Z,99.90
2023-07-25T01:50:37.280Z,99.90
2023-07-25T01:53:05.082Z,99.90
2023-07-25T01:55:32.760Z,99.90
2023-07-25T01:58:00.777Z,99.90
2023-07-25T02:00:28.758Z,99.90
2023-07-25T02:02:56.425Z,99.90
2023-07-25T02:05:24.217Z,99.90
2023-07-25T02:07:52.757Z,99.90
2023-07-25T02:10:20.468Z,99.90
2023-07-25T02:12:47.961Z,99.90
2023-07-25T02:15:15.529Z,99.90
2023-07-25T02:17:43.296Z,99.90
2023-07-25T02:20:11.937Z,99.90
2023-07-25T02:22:39.889Z,99.90
2023-07-25T02:25:07.947Z,99.90
2023-07-25T02:27:35.747Z,99.90
2023-07-25T02:30:03.929Z,99.90
2023-07-25T02:32:32.346Z,99.90
2023-07-25T02:35:00.271Z,99.90
2023-07-25T02:37:28.072Z,99.90
2023-07-25T02:39:55.711Z,99.90
2023-07-25T02:42:23.322Z,99.90
2023-07-25T02:44:51.268Z,99.90
2023-07-25T02:47:19.685Z,99.90
2023-07-25T02:49:48.922Z,99.90
2023-07-25T02:52:16.791Z,99.90
2023-07-25T02:54:44.496Z,99.90
2023-07-25T02:57:12.263Z,99.90
2023-07-25T02:59:39.911Z,99.90
2023-07-25T03:02:08.251Z,99.90
2023-07-25T03:04:36.174Z,99.90
2023-07-25T03:07:04.377Z,99.90
2023-07-25T03:09:32.097Z,99.90
2023-07-25T03:11:59.921Z,99.90
2023-07-25T03:14:27.634Z,99.90
2023-07-25T03:16:56.122Z,99.90
2023-07-25T03:19:24.140Z,99.90
2023-07-25T03:21:52.300Z,99.90
2023-07-25T03:24:20.394Z,99.90
2023-07-25T03:26:47.992Z,99.90
2023-07-25T03:29:15.759Z,99.90
2023-07-25T03:31:43.429Z,99.90
2023-07-25T03:34:11.078Z,99.90
2023-07-25T03:36:38.814Z,99.90
2023-07-25T03:39:06.543Z,99.90
2023-07-25T03:41:34.327Z,99.90
2023-07-25T03:44:02.446Z,99.90
2023-07-25T03:46:30.325Z,99.90
2023-07-25T03:48:59.354Z,99.90
2023-07-25T03:51:26.955Z,99.90
2023-07-25T03:53:54.592Z,99.90
2023-07-25T03:56:22.285Z,99.90
2023-07-25T03:58:49.792Z,99.90
2023-07-25T04:01:17.591Z,99.90
2023-07-25T04:03:45.367Z,99.90
2023-07-25T04:06:13.423Z,99.90
2023-07-25T04:08:41.148Z,99.90
2023-07-25T04:11:08.927Z,99.90
2023-07-25T04:13:36.448Z,99.90
2023-07-25T04:16:04.318Z,99.90
2023-07-25T04:18:32.799Z,99.90
2023-07-25T04:21:00.493Z,99.90
2023-07-25T04:23:28.268Z,99.90
2023-07-25T04:25:56.387Z,99.90
2023-07-25T04:28:24.218Z,99.90
2023-07-25T04:30:51.950Z,99.90
2023-07-25T04:33:19.493Z,99.90
2023-07-25T04:35:47.601Z,99.90
2023-07-25T04:38:15.788Z,99.90
2023-07-25T04:40:44.571Z,99.90
2023-07-25T04:43:12.418Z,99.90
2023-07-25T04:45:40.461Z,99.90
2023-07-25T04:48:08.138Z,99.90
2023-07-25T04:50:36.007Z,99.90
2023-07-25T04:53:05.754Z,99.90
2023-07-25T04:55:33.323Z,99.90
2023-07-25T04:58:01.031Z,99.90
2023-07-25T05:00:30.772Z,99.90
2023-07-25T05:02:59.380Z,99.90
2023-07-25T05:05:27.064Z,99.90
2023-07-25T05:07:54.628Z,99.90
2023-07-25T05:10:22.546Z,99.90
2023-07-25T05:12:50.494Z,99.90
2023-07-25T05:15:18.173Z,99.90
2023-07-25T05:17:45.856Z,99.90
2023-07-25T05:20:14.497Z,99.90
2023-07-25T05:22:42.632Z,99.90
2023-07-25T05:25:10.469Z,99.90
2023-07-25T05:27:38.358Z,99.90
2023-07-25T05:30:07.005Z,99.90
2023-07-25T05:32:37.564Z,99.90
2023-07-25T05:35:06.365Z,99.90
2023-07-25T05:37:38.845Z,99.90
2023-07-25T05:40:07.235Z,99.90
2023-07-25T05:42:35.121Z,99.90
2023-07-25T05:45:02.628Z,99.90
2023-07-25T05:47:31.637Z,99.90
2023-07-25T05:49:59.260Z,99.90
2023-07-25T05:52:26.755Z,99.90
2023-07-25T05:54:55.051Z,99.90
2023-07-25T05:57:22.528Z,99.90
2023-07-25T05:59:50.070Z,99.90
2023-07-25T06:02:17.824Z,99.90
2023-07-25T06:04:47.328Z,99.90
2023-07-25T06:07:16.888Z,99.90
2023-07-25T06:09:44.345Z,99.90
2023-07-25T06:12:11.792Z,99.90
2023-07-25T06:14:39.266Z,99.90
2023-07-25T06:17:06.930Z,99.90
2023-07-25T06:19:34.676Z,99.90
2023-07-25T06:22:02.303Z,99.90
2023-07-25T06:24:30.080Z,99.90
2023-07-25T06:26:57.814Z,99.90
2023-07-25T06:29:25.616Z,99.90
2023-07-25T06:31:53.312Z,99.90
2023-07-25T06:34:22.347Z,99.90
2023-07-25T06:36:49.911Z,99.90
2023-07-25T06:39:17.393Z,99.90
2023-07-25T06:41:45.021Z,99.90
2023-07-25T06:44:17.062Z,99.90
2023-07-25T06:46:44.926Z,99.90
2023-07-25T06:49:12.636Z,99.90
2023-07-25T06:51:40.223Z,99.90
2023-07-25T06:54:07.770Z,99.90
2023-07-25T06:56:35.280Z,99.90
2023-07-25T06:59:02.808Z,99.90
2023-07-25T07:01:30.824Z,99.90
2023-07-25T07:04:00.884Z,99.90
2023-07-25T07:06:28.517Z,99.90
2023-07-25T07:08:56.344Z,99.90
2023-07-25T07:11:24.129Z,99.90
2023-07-25T07:13:52.024Z,99.90
2023-07-25T07:16:20.159Z,99.90
2023-07-25T07:18:47.892Z,99.90
2023-07-25T07:21:15.485Z,99.90
2023-07-25T07:23:42.926Z,99.90
2023-07-25T07:26:10.526Z,99.90
2023-07-25T07:28:40.254Z,99.90
2023-07-25T07:31:10.194Z,99.90
2023-07-25T07:33:38.590Z,99.90
2023-07-25T07:36:06.570Z,99.90
2023-07-25T07:38:34.127Z,99.90
2023-07-25T07:41:01.600Z,99.90
2023-07-25T07:43:29.029Z,99.90
2023-07-25T07:45:58.337Z,99.90
2023-07-25T07:48:26.005Z,99.90
2023-07-25T07:50:53.511Z,99.90
2023-07-25T07:53:21.045Z,99.90
2023-07-25T07:55:48.567Z,99.90
2023-07-25T07:58:16.001Z,99.90
2023-07-25T08:00:43.471Z,99.90
2023-07-25T08:03:11.164Z,99.90
2023-07-25T08:05:38.866Z,99.90
2023-07-25T08:08:06.914Z,99.90
2023-07-25T08:10:34.516Z,99.90
2023-07-25T08:13:02.201Z,99.90
2023-07-25T08:15:29.838Z,99.90
2023-07-25T08:17:57.442Z,99.90
2023-07-25T08:20:25.109Z,99.90
2023-07-25T08:22:52.529Z,99.90
2023-07-25T08:25:20.033Z,99.90
2023-07-25T08:27:47.603Z,99.90
2023-07-25T08:30:15.287Z,99.90
2023-07-25T08:32:43.063Z,99.50
2023-07-25T08:35:10.699Z,99.20
2023-07-25T08:37:38.367Z,99.10
2023-07-25T08:40:06.773Z,98.90
2023-07-25T08:42:36.491Z,98.80
2023-07-25T08:45:07.376Z,98.50
2023-07-25T08:47:37.399Z,98.20
2023-07-25T08:50:16.148Z,98.40
2023-07-25T08:52:52.885Z,98.10
2023-07-25T08:55:22.124Z,97.30
2023-07-25T08:57:52.522Z,97.00
2023-07-25T09:00:22.490Z,97.00
2023-07-25T09:02:53.833Z,96.60
2023-07-25T09:05:22.862Z,96.50
2023-07-25T09:07:50.421Z,96.30
2023-07-25T09:10:18.188Z,95.80
2023-07-25T09:12:46.112Z,95.30
2023-07-25T09:15:14.360Z,95.00
2023-07-25T09:17:42.138Z,94.70
2023-07-25T09:20:10.588Z,93.90
2023-07-25T09:22:38.463Z,93.40
2023-07-25T09:25:09.452Z,93.10
2023-07-25T09:27:37.174Z,92.90
2023-07-25T09:30:13.143Z,92.90
2023-07-25T09:32:47.378Z,92.40
2023-07-25T09:35:15.349Z,92.30
2023-07-25T09:37:43.299Z,92.20
2023-07-25T09:40:12.130Z,92.00
2023-07-25T09:42:43.551Z,92.20
2023-07-25T09:45:12.927Z,91.90
2023-07-25T09:47:40.582Z,91.50
2023-07-25T09:50:09.773Z,91.40
2023-07-25T09:52:44.266Z,91.20
2023-07-25T09:55:11.849Z,90.00
2023-07-25T09:57:40.436Z,89.20
2023-07-25T10:00:08.493Z,87.70
2023-07-25T10:02:37.846Z,87.50
2023-07-25T10:05:07.374Z,87.50
2023-07-25T10:07:35.631Z,86.10
2023-07-25T10:10:05.778Z,85.50
2023-07-25T10:12:33.592Z,86.10
2023-07-25T10:15:02.144Z,84.50
2023-07-25T10:17:29.952Z,84.10
2023-07-25T10:19:57.875Z,82.80
2023-07-25T10:22:35.449Z,82.20
2023-07-25T10:25:03.359Z,81.20
2023-07-25T10:27:31.035Z,81.50
2023-07-25T10:30:04.643Z,80.30
2023-07-25T10:32:47.164Z,79.80
2023-07-25T10:35:14.934Z,78.70
2023-07-25T10:37:45.991Z,77.30
2023-07-25T10:40:18.930Z,75.50
2023-07-25T10:45:28.427Z,74.50
2023-07-25T10:47:59.520Z,73.60
2023-07-25T10:50:48.396Z,74.60
2023-07-25T10:53:23.836Z,72.30
2023-07-25T10:56:18.315Z,72.40
2023-07-25T10:59:08.231Z,72.60
2023-07-25T11:01:36.159Z,71.70
2023-07-25T11:04:30.384Z,73.00
2023-07-25T11:06:59.314Z,69.50
2023-07-25T11:09:27.780Z,69.20
2023-07-25T11:11:56.513Z,67.80
2023-07-25T11:14:24.374Z,67.10
2023-07-25T11:16:53.349Z,66.50
2023-07-25T11:19:27.537Z,66.20
2023-07-25T11:21:55.685Z,65.20
2023-07-25T11:24:23.232Z,63.70
2023-07-25T11:26:50.680Z,63.30
2023-07-25T11:29:19.070Z,63.40
2023-07-25T11:31:48.359Z,63.10
2023-07-25T11:34:19.532Z,60.50
2023-07-25T11:36:47.479Z,59.50
2023-07-25T11:39:16.407Z,58.40
2023-07-25T11:41:46.185Z,57.80
2023-07-25T11:44:18.940Z,56.80
2023-07-25T11:46:51.269Z,57.10
2023-07-25T11:49:35.646Z,57.60
2023-07-25T11:52:05.298Z,57.50
2023-07-25T11:54:34.872Z,57.80
2023-07-25T11:57:03.008Z,57.50
2023-07-25T11:59:31.200Z,57.00
2023-07-25T12:02:06.488Z,56.00
2023-07-25T12:04:42.449Z,54.60
2023-07-25T12:07:10.239Z,55.30
2023-07-25T12:09:38.296Z,54.90
2023-07-25T12:12:13.001Z,54.20
2023-07-25T12:14:40.842Z,52.80
2023-07-25T12:17:08.492Z,53.40
2023-07-25T12:19:37.013Z,53.40
2023-07-25T12:22:05.968Z,52.40
2023-07-25T12:24:42.852Z,52.50
2023-07-25T12:27:20.209Z,52.10
2023-07-25T12:29:47.963Z,52.60
2023-07-25T12:32:15.504Z,53.00
2023-07-25T12:34:43.063Z,53.30
2023-07-25T12:37:10.560Z,53.50
2023-07-25T12:39:39.227Z,53.80
2023-07-25T12:42:06.921Z,54.10
2023-07-25T12:44:35.607Z,54.50
2023-07-25T12:47:03.247Z,54.30
2023-07-25T12:49:30.708Z,56.90
2023-07-25T12:52:00.330Z,55.90
2023-07-25T12:54:28.323Z,55.20
2023-07-25T12:56:55.785Z,55.20
2023-07-25T12:59:23.257Z,56.10
2023-07-25T13:01:50.778Z,55.10
2023-07-25T13:04:18.485Z,57.80
2023-07-25T13:06:46.956Z,57.10
2023-07-25T13:09:14.418Z,55.70
2023-07-25T13:11:41.873Z,55.10
2023-07-25T13:14:09.348Z,54.90
2023-07-25T13:16:36.873Z,54.90
2023-07-25T13:19:04.637Z,54.20
2023-07-25T13:21:32.361Z,53.50
2023-07-25T13:23:59.970Z,53.30
2023-07-25T13:26:29.159Z,53.30
2023-07-25T13:28:57.822Z,53.30
2023-07-25T13:31:25.524Z,53.60
2023-07-25T13:33:53.029Z,54.80
2023-07-25T13:36:20.496Z,55.30
2023-07-25T13:38:48.028Z,55.30
2023-07-25T13:41:15.592Z,54.30
2023-07-25T13:43:43.063Z,54.10
2023-07-25T13:46:10.538Z,53.20
2023-07-25T13:48:38.149Z,52.20
2023-07-25T13:51:05.609Z,51.70
2023-07-25T13:53:33.084Z,51.00
2023-07-25T13:56:00.831Z,50.90
2023-07-25T13:58:28.398Z,50.90
2023-07-25T14:00:55.995Z,50.40
2023-07-25T14:03:23.477Z,50.40
2023-07-25T14:05:51.044Z,49.90
2023-07-25T14:08:18.701Z,49.60
2023-07-25T14:10:46.233Z,49.10
2023-07-25T14:13:13.692Z,48.90
2023-07-25T14:15:42.173Z,48.30
2023-07-25T14:18:09.791Z,48.00
2023-07-25T14:20:39.212Z,49.00
2023-07-25T14:23:07.064Z,48.80
2023-07-25T14:25:34.958Z,49.00
2023-07-25T14:28:02.603Z,49.00
2023-07-25T14:30:32.937Z,49.10
2023-07-25T14:33:01.992Z,49.10
2023-07-25T14:35:30.050Z,49.60
2023-07-25T14:37:58.719Z,49.30
2023-07-25T14:40:28.327Z,49.20
2023-07-25T14:42:56.001Z,49.70
2023-07-25T14:45:23.705Z,49.80
2023-07-25T14:47:51.642Z,50.10
2023-07-25T14:50:19.473Z,50.10
2023-07-25T14:52:47.278Z,49.60
2023-07-25T14:55:15.170Z,49.80
2023-07-25T14:57:43.056Z,50.00
2023-07-25T15:00:11.213Z,49.90
2023-07-25T15:02:39.546Z,50.20
2023-07-25T15:05:07.821Z,50.40
2023-07-25T15:07:35.899Z,54.30
2023-07-25T15:10:04.581Z,54.20
2023-07-25T15:12:32.450Z,53.30
2023-07-25T15:15:00.669Z,53.00
2023-07-25T15:17:29.488Z,52.70
2023-07-25T15:20:10.206Z,52.60
2023-07-25T15:22:38.229Z,51.60
2023-07-25T15:25:06.314Z,51.80
2023-07-25T15:27:33.831Z,51.00
2023-07-25T15:30:02.188Z,51.00
2023-07-25T15:32:30.134Z,50.90
2023-07-25T15:34:58.488Z,50.70
2023-07-25T15:37:26.221Z,49.90
2023-07-25T15:39:54.245Z,50.10
2023-07-25T15:42:21.732Z,50.10
2023-07-25T15:44:49.473Z,49.20
2023-07-25T15:47:17.130Z,48.70
2023-07-25T15:49:44.719Z,47.80
2023-07-25T15:52:12.393Z,47.10
2023-07-25T15:54:39.952Z,46.10
2023-07-25T15:57:07.624Z,45.60
2023-07-25T15:59:35.234Z,43.60
2023-07-25T16:02:03.907Z,42.20
2023-07-25T16:04:31.620Z,40.50
2023-07-25T16:06:59.824Z,40.30
2023-07-25T16:09:28.175Z,38.90
2023-07-25T16:11:56.135Z,39.30
2023-07-25T16:14:23.779Z,38.70
2023-07-25T16:16:51.373Z,38.50
2023-07-25T16:19:19.374Z,38.40
2023-07-25T16:21:47.268Z,38.30
2023-07-25T16:24:14.973Z,38.70
2023-07-25T16:26:42.572Z,38.90
2023-07-25T16:29:10.090Z,39.30
2023-07-25T16:31:38.088Z,40.00
2023-07-25T16:34:06.205Z,40.70
2023-07-25T16:36:34.045Z,41.70
2023-07-25T16:39:01.738Z,41.90
2023-07-25T16:41:29.664Z,42.60
2023-07-25T16:43:57.736Z,42.90
2023-07-25T16:46:25.535Z,43.10
2023-07-25T16:48:53.138Z,43.60
2023-07-25T16:51:20.946Z,43.80
2023-07-25T16:53:48.768Z,44.30
2023-07-25T16:56:16.451Z,44.20
2023-07-25T16:58:44.189Z,44.10
2023-07-25T17:01:11.805Z,44.30
2023-07-25T17:03:40.505Z,44.00
2023-07-25T17:06:08.507Z,44.10
2023-07-25T17:08:36.127Z,44.40
2023-07-25T17:11:09.681Z,44.20
2023-07-25T17:13:37.325Z,43.60
2023-07-25T17:16:07.427Z,43.30
2023-07-25T17:18:35.508Z,43.40
2023-07-25T17:21:03.363Z,43.40
2023-07-25T17:23:31.174Z,42.80
2023-07-25T17:25:58.659Z,42.40
2023-07-25T17:28:26.627Z,42.40
2023-07-25T17:30:54.419Z,42.80
2023-07-25T17:33:22.251Z,43.40
2023-07-25T17:35:50.131Z,43.90
2023-07-25T17:38:18.972Z,44.10
2023-07-25T17:40:48.511Z,44.50
2023-07-25T17:43:16.533Z,44.80
2023-07-25T17:45:44.443Z,45.00
2023-07-25T17:48:14.709Z,45.30
2023-07-25T17:50:42.510Z,45.60
2023-07-25T17:53:10.460Z,46.00
2023-07-25T17:55:40.025Z,46.10
2023-07-25T17:58:12.216Z,46.20
2023-07-25T18:00:41.377Z,46.60
2023-07-25T18:03:09.564Z,47.10
2023-07-25T18:05:38.010Z,46.90
2023-07-25T18:08:05.709Z,46.90
2023-07-25T18:10:33.419Z,47.10
2023-07-25T18:13:01.386Z,47.20
2023-07-25T18:15:30.626Z,47.50
2023-07-25T18:17:59.314Z,47.40
2023-07-25T18:20:27.723Z,47.50
2023-07-25T18:22:55.536Z,47.50
2023-07-25T18:25:23.334Z,47.70
2023-07-25T18:27:51.189Z,48.10
2023-07-25T18:30:18.742Z,48.30
2023-07-25T18:32:46.830Z,48.30
2023-07-25T18:35:14.828Z,48.60
2023-07-25T18:37:42.405Z,48.70
2023-07-25T18:40:10.660Z,48.60
2023-07-25T18:42:38.817Z,48.80
2023-07-25T18:45:07.420Z,49.20
2023-07-25T18:47:36.008Z,49.80
2023-07-25T18:50:05.411Z,50.20
2023-07-25T18:52:33.642Z,50.80
2023-07-25T18:55:01.414Z,51.30
2023-07-25T18:57:29.716Z,51.80
2023-07-25T18:59:57.605Z,52.30
2023-07-25T19:02:25.431Z,52.60
2023-07-25T19:04:53.394Z,52.90
2023-07-25T19:07:21.877Z,53.00
2023-07-25T19:09:50.664Z,53.40
2023-07-25T19:12:18.590Z,53.70
2023-07-25T19:14:46.209Z,54.20
2023-07-25T19:17:14.162Z,54.40
2023-07-25T19:19:42.551Z,54.60
2023-07-25T19:22:10.335Z,54.70
2023-07-25T19:24:38.437Z,55.00
2023-07-25T19:27:06.426Z,56.00
2023-07-25T19:29:34.281Z,56.10
2023-07-25T19:32:02.444Z,56.00
2023-07-25T19:34:30.048Z,56.00
2023-07-25T19:36:57.602Z,56.20
2023-07-25T19:39:25.209Z,56.20
2023-07-25T19:41:54.222Z,56.40
2023-07-25T19:44:22.095Z,56.60
2023-07-25T19:46:52.510Z,56.70
2023-07-25T19:49:21.313Z,56.80
2023-07-25T19:51:49.056Z,56.90
2023-07-25T19:54:17.232Z,57.20
2023-07-25T19:56:45.303Z,57.90
2023-07-25T19:59:13.112Z,57.50
2023-07-25T20:01:40.705Z,58.10
2023-07-25T20:04:08.475Z,57.40
2023-07-25T20:06:37.646Z,57.50
2023-07-25T20:09:05.215Z,58.10
2023-07-25T20:11:32.814Z,57.50
2023-07-25T20:14:02.931Z,57.60
2023-07-25T20:16:30.996Z,57.70
2023-07-25T20:18:58.854Z,57.80
2023-07-25T20:21:26.586Z,58.00
2023-07-25T20:23:54.193Z,58.20
2023-07-25T20:26:21.785Z,58.40
2023-07-25T20:28:49.550Z,58.60
2023-07-25T20:31:17.247Z,58.70
2023-07-25T20:33:44.760Z,58.90
2023-07-25T20:36:12.434Z,59.00
2023-07-25T20:38:40.036Z,59.20
2023-07-25T20:41:07.627Z,59.40
2023-07-25T20:43:35.225Z,59.50
2023-07-25T20:46:04.238Z,59.60
2023-07-25T20:48:33.301Z,59.80
2023-07-25T20:51:02.394Z,60.20
2023-07-25T20:53:29.905Z,60.50
2023-07-25T20:55:58.729Z,61.00
2023-07-25T20:58:26.335Z,61.40
2023-07-25T21:00:54.015Z,61.60
2023-07-25T21:03:21.851Z,61.80
2023-07-25T21:05:49.536Z,61.70
2023-07-25T21:08:17.253Z,62.20
2023-07-25T21:10:44.795Z,62.60
2023-07-25T21:13:12.660Z,62.70
2023-07-25T21:15:40.391Z,62.80
2023-07-25T21:18:13.856Z,62.80
2023-07-25T21:20:45.012Z,63.10
2023-07-25T21:23:12.668Z,63.30
2023-07-25T21:25:42.343Z,63.50
2023-07-25T21:28:09.792Z,63.80
2023-07-25T21:30:37.486Z,63.90
2023-07-25T21:33:05.147Z,63.90
2023-07-25T21:35:32.900Z,64.10
2023-07-25T21:38:00.802Z,64.40
2023-07-25T21:40:28.804Z,64.50
2023-07-25T21:42:56.861Z,64.70
2023-07-25T21:45:24.701Z,65.80
2023-07-25T21:47:52.428Z,65.80
2023-07-25T21:50:19.938Z,65.70
2023-07-25T21:52:49.067Z,65.90
2023-07-25T21:55:16.674Z,66.30
2023-07-25T21:57:44.123Z,66.40
2023-07-25T22:00:12.587Z,66.50
2023-07-25T22:02:41.160Z,66.60
2023-07-25T22:05:08.753Z,67.00
2023-07-25T22:07:36.248Z,67.30
2023-07-25T22:10:03.862Z,67.60
2023-07-25T22:12:31.377Z,68.10
2023-07-25T22:14:58.885Z,68.40
2023-07-25T22:17:26.560Z,68.90
2023-07-25T22:19:54.044Z,69.20
2023-07-25T22:22:21.824Z,69.60
2023-07-25T22:24:49.411Z,69.80
2023-07-25T22:27:16.956Z,70.10
2023-07-25T22:29:46.488Z,70.30
2023-07-25T22:32:14.075Z,70.80
2023-07-25T22:34:41.977Z,71.00
2023-07-25T22:37:09.596Z,71.50
2023-07-25T22:39:37.196Z,71.90
2023-07-25T22:42:05.066Z,72.30
2023-07-25T22:44:33.112Z,72.60
2023-07-25T22:47:01.351Z,73.00
2023-07-25T22:49:28.934Z,73.40
2023-07-25T22:51:56.669Z,73.60
2023-07-25T22:54:24.428Z,74.00
2023-07-25T22:56:52.112Z,74.50
2023-07-25T22:59:19.530Z,74.80
2023-07-25T23:01:47.207Z,75.10
2023-07-25T23:04:15.327Z,75.60
2023-07-25T23:06:43.307Z,76.00
2023-07-25T23:09:11.162Z,76.30
2023-07-25T23:11:38.931Z,76.70
2023-07-25T23:14:06.519Z,77.00
2023-07-25T23:16:34.415Z,77.20
2023-07-25T23:19:02.313Z,77.50
2023-07-25T23:21:30.213Z,77.90
2023-07-25T23:23:58.139Z,78.20
2023-07-25T23:26:25.772Z,78.60
2023-07-25T23:28:53.943Z,78.70
2023-07-25T23:31:22.192Z,79.10
2023-07-25T23:33:49.982Z,79.40
2023-07-25T23:36:17.832Z,79.70
2023-07-25T23:38:45.447Z,80.20
2023-07-25T23:41:13.313Z,80.60
2023-07-25T23:43:41.024Z,80.90
2023-07-25T23:46:08.635Z,81.10
2023-07-25T23:48:36.948Z,81.40
2023-07-25T23:51:04.632Z,81.70
2023-07-25T23:53:32.533Z,81.90
2023-07-25T23:56:00.302Z,82.20
2023-07-25T23:58:28.108Z,82.60
